createdAt,value
2022-09-28T00:01:08.282Z,5.18
2022-09-28T00:03:36.358Z,5.38
2022-09-28T00:06:08.247Z,6.18
2022-09-28T00:08:36.714Z,5.55
2022-09-28T00:11:06.364Z,6.22
2022-09-28T00:13:34.568Z,6.13
2022-09-28T00:16:14.172Z,6.10
2022-09-28T00:18:41.886Z,5.65
2022-09-28T00:21:13.373Z,6.18
2022-09-28T00:24:00.676Z,6.18
2022-09-28T00:26:30.686Z,6.25
2022-09-28T00:29:00.759Z,7.88
2022-09-28T00:31:32.742Z,6.60
2022-09-28T00:34:01.971Z,6.50
2022-09-28T00:36:31.713Z,5.50
2022-09-28T00:39:03.168Z,5.18
2022-09-28T00:41:30.938Z,5.68
2022-09-28T00:44:37.507Z,6.22
2022-09-28T00:47:13.577Z,7.00
2022-09-28T00:49:43.609Z,4.90
2022-09-28T00:52:20.177Z,5.20
2022-09-28T00:54:49.157Z,6.00
2022-09-28T00:57:17.123Z,5.22
2022-09-28T00:59:44.675Z,3.80
2022-09-28T01:02:12.274Z,3.83
2022-09-28T01:04:39.994Z,4.82
2022-09-28T01:07:08.992Z,3.60
2022-09-28T01:09:39.133Z,3.70
2022-09-28T01:12:07.575Z,3.45
2022-09-28T01:14:35.166Z,3.70
2022-09-28T01:17:48.913Z,3.40
2022-09-28T01:20:39.546Z,3.05
2022-09-28T01:23:54.743Z,3.67
2022-09-28T01:26:40.857Z,3.40
2022-09-28T01:29:49.113Z,3.10
2022-09-28T01:32:19.138Z,3.38
2022-09-28T01:35:02.723Z,3.15
2022-09-28T01:37:40.084Z,3.50
2022-09-28T01:40:09.989Z,3.63
2022-09-28T01:42:39.973Z,3.22
2022-09-28T01:45:14.697Z,3.60
2022-09-28T01:47:44.131Z,4.40
2022-09-28T01:50:16.078Z,3.40
2022-09-28T01:52:55.287Z,3.78
2022-09-28T01:55:37.388Z,4.43
2022-09-28T01:58:37.371Z,4.20
2022-09-28T02:01:13.982Z,4.47
2022-09-28T02:03:55.833Z,4.30
2022-09-28T02:06:29.563Z,5.13
2022-09-28T02:09:02.925Z,7.38
2022-09-28T02:11:44.995Z,5.00
2022-09-28T02:14:18.254Z,5.43
2022-09-28T02:16:54.295Z,5.10
2022-09-28T02:19:28.785Z,5.22
2022-09-28T02:22:02.756Z,5.95
2022-09-28T02:25:08.513Z,5.28
2022-09-28T02:27:58.480Z,5.90
2022-09-28T02:30:26.535Z,5.68
2022-09-28T02:32:59.128Z,5.75
2022-09-28T02:35:27.085Z,6.03
2022-09-28T02:37:55.275Z,5.82
2022-09-28T02:40:29.783Z,6.47
2022-09-28T02:43:31.149Z,5.43
2022-09-28T02:46:28.565Z,5.50
2022-09-28T02:49:22.161Z,6.35
2022-09-28T02:52:03.886Z,5.72
2022-09-28T02:54:47.652Z,5.70
2022-09-28T02:57:36.956Z,5.55
2022-09-28T03:00:15.141Z,5.72
2022-09-28T03:03:04.106Z,6.25
2022-09-28T03:05:55.773Z,7.15
2022-09-28T03:08:46.816Z,5.22
2022-09-28T03:11:25.118Z,5.40
2022-09-28T03:13:53.605Z,5.97
2022-09-28T03:16:26.187Z,4.97
2022-09-28T03:18:53.706Z,5.32
2022-09-28T03:21:21.165Z,6.07
2022-09-28T03:23:48.527Z,5.28
2022-09-28T03:26:17.330Z,6.55
2022-09-28T03:28:44.666Z,6.35
2022-09-28T03:31:18.097Z,6.35
2022-09-28T03:33:45.484Z,5.90
2022-09-28T03:36:15.045Z,5.90
2022-09-28T03:38:42.564Z,7.30
2022-09-28T03:41:11.159Z,6.78
2022-09-28T03:43:41.504Z,8.48
2022-09-28T03:46:09.058Z,4.95
2022-09-28T03:48:42.171Z,5.25
2022-09-28T03:51:12.236Z,9.82
2022-09-28T03:53:40.171Z,5.10
2022-09-28T03:56:13.452Z,5.90
2022-09-28T03:58:42.401Z,6.72
2022-09-28T04:01:16.755Z,7.32
2022-09-28T04:03:47.018Z,5.80
2022-09-28T04:06:15.270Z,5.38
2022-09-28T04:08:43.548Z,5.57
2022-09-28T04:11:11.867Z,6.03
2022-09-28T04:13:39.375Z,7.93
2022-09-28T04:16:10.825Z,5.35
2022-09-28T04:18:39.953Z,5.97
2022-09-28T04:21:18.832Z,6.70
2022-09-28T04:23:53.067Z,5.30
2022-09-28T04:26:26.679Z,5.95
2022-09-28T04:29:13.149Z,5.72
2022-09-28T04:31:50.761Z,7.03
2022-09-28T04:34:21.684Z,7.80
2022-09-28T04:36:50.230Z,8.70
2022-09-28T04:39:19.458Z,6.65
2022-09-28T04:44:21.075Z,8.50
2022-09-28T04:46:50.665Z,6.28
2022-09-28T04:49:30.402Z,6.22
2022-09-28T04:52:18.717Z,6.60
2022-09-28T04:54:49.045Z,6.30
2022-09-28T04:57:17.152Z,7.40
2022-09-28T04:59:44.994Z,5.10
2022-09-28T05:02:15.394Z,5.53
2022-09-28T05:05:01.811Z,4.60
2022-09-28T05:08:04.411Z,5.47
2022-09-28T05:10:32.067Z,4.93
2022-09-28T05:13:02.145Z,7.03
2022-09-28T05:15:31.060Z,6.53
2022-09-28T05:18:02.143Z,4.68
2022-09-28T05:20:42.446Z,5.47
2022-09-28T05:23:11.692Z,5.88
2022-09-28T05:25:40.130Z,3.50
2022-09-28T05:28:26.135Z,4.25
2022-09-28T05:33:58.169Z,3.10
2022-09-28T05:36:27.444Z,3.35
2022-09-28T05:38:54.956Z,3.25
2022-09-28T05:41:22.472Z,3.05
2022-09-28T05:43:52.051Z,2.60
2022-09-28T05:46:21.234Z,1.50
2022-09-28T05:48:51.264Z,2.28
2022-09-28T05:51:19.370Z,1.98
2022-09-28T05:53:47.279Z,2.35
2022-09-28T05:56:16.326Z,1.30
2022-09-28T05:58:45.266Z,3.20
2022-09-28T06:01:13.562Z,2.53
2022-09-28T06:03:41.070Z,1.08
2022-09-28T06:06:08.458Z,1.77
2022-09-28T06:08:36.525Z,3.25
2022-09-28T06:11:33.528Z,1.42
2022-09-28T06:14:07.679Z,6.57
2022-09-28T06:16:38.238Z,1.83
2022-09-28T06:19:10.487Z,1.27
2022-09-28T06:21:59.154Z,0.90
2022-09-28T06:24:27.090Z,0.80
2022-09-28T06:26:54.684Z,1.50
2022-09-28T06:29:23.095Z,1.75
2022-09-28T06:31:51.496Z,1.10
2022-09-28T06:34:19.258Z,0.93
2022-09-28T06:39:35.429Z,1.33
2022-09-28T06:42:03.982Z,1.92
2022-09-28T06:44:52.066Z,1.05
2022-09-28T06:47:33.593Z,2.00
2022-09-28T06:50:12.311Z,3.13
2022-09-28T06:53:09.606Z,0.80
2022-09-28T06:56:01.313Z,1.40
2022-09-28T06:58:29.551Z,0.70
2022-09-28T07:00:59.513Z,0.88
2022-09-28T07:03:28.478Z,0.60
2022-09-28T07:06:14.558Z,1.00
2022-09-28T07:09:30.711Z,1.48
2022-09-28T07:12:35.298Z,0.88
2022-09-28T07:15:07.483Z,0.80
2022-09-28T07:17:47.282Z,1.95
2022-09-28T07:20:19.751Z,1.38
2022-09-28T07:22:53.754Z,1.92
2022-09-28T07:25:23.888Z,0.60
2022-09-28T07:28:14.880Z,1.15
2022-09-28T07:31:09.714Z,0.75
2022-09-28T07:34:00.140Z,0.52
2022-09-28T07:39:03.771Z,1.42
2022-09-28T07:41:34.137Z,0.70
2022-09-28T07:44:06.286Z,3.05
2022-09-28T07:46:36.955Z,0.52
2022-09-28T07:49:36.431Z,1.77
2022-09-28T07:52:26.369Z,1.27
2022-09-28T07:55:07.677Z,0.70
2022-09-28T07:58:01.826Z,2.15
2022-09-28T08:00:50.276Z,1.80
2022-09-28T08:03:20.076Z,2.97
2022-09-28T08:05:48.146Z,1.30
2022-09-28T08:08:15.716Z,0.70
2022-09-28T08:10:46.801Z,1.13
2022-09-28T08:13:45.645Z,4.18
2022-09-28T08:16:34.587Z,0.60
2022-09-28T08:19:15.055Z,1.50
2022-09-28T08:21:45.441Z,0.50
2022-09-28T08:24:18.178Z,0.63
2022-09-28T08:26:47.416Z,0.63
2022-09-28T08:29:17.248Z,0.85
2022-09-28T08:31:48.570Z,0.50
2022-09-28T08:34:38.163Z,1.58
2022-09-28T08:37:07.257Z,0.88
2022-09-28T08:40:17.050Z,1.33
2022-09-28T08:43:04.430Z,1.95
2022-09-28T08:45:51.269Z,0.50
2022-09-28T08:49:25.291Z,0.50
2022-09-28T08:52:37.814Z,1.23
2022-09-28T08:55:33.139Z,3.05
2022-09-28T08:58:28.365Z,0.50
2022-09-28T09:00:56.156Z,0.57
2022-09-28T09:03:39.558Z,1.38
2022-09-28T09:06:35.371Z,0.50
2022-09-28T09:09:59.352Z,2.88
2022-09-28T09:13:03.197Z,1.65
2022-09-28T09:15:56.438Z,2.50
2022-09-28T09:18:55.931Z,1.10
2022-09-28T09:21:43.879Z,0.82
2022-09-28T09:24:40.723Z,1.25
2022-09-28T09:27:45.143Z,0.55
2022-09-28T09:30:20.513Z,0.95
2022-09-28T09:33:13.362Z,0.70
2022-09-28T09:36:37.632Z,0.82
2022-09-28T09:39:44.924Z,1.02
2022-09-28T09:42:53.683Z,0.98
2022-09-28T09:46:07.243Z,1.98
2022-09-28T09:48:56.863Z,1.40
2022-09-28T09:51:47.240Z,0.40
2022-09-28T09:54:24.810Z,0.60
2022-09-28T09:56:57.445Z,2.55
2022-09-28T09:59:45.825Z,0.88
2022-09-28T10:02:45.108Z,1.08
2022-09-28T10:05:34.974Z,1.73
2022-09-28T10:08:15.647Z,1.75
2022-09-28T10:10:51.647Z,2.00
2022-09-28T10:13:20.800Z,1.42
2022-09-28T10:15:51.528Z,1.63
2022-09-28T10:18:30.347Z,0.60
2022-09-28T10:21:23.307Z,0.98
2022-09-28T10:24:02.508Z,1.55
2022-09-28T10:26:39.334Z,1.10
2022-09-28T10:29:25.072Z,0.70
2022-09-28T10:31:55.796Z,1.67
2022-09-28T10:34:28.780Z,1.33
2022-09-28T10:37:08.581Z,2.70
2022-09-28T10:40:34.189Z,1.10
2022-09-28T10:43:07.796Z,2.47
2022-09-28T10:45:37.531Z,1.40
2022-09-28T10:48:14.090Z,1.25
2022-09-28T10:50:42.503Z,1.10
2022-09-28T10:53:20.504Z,2.10
2022-09-28T10:56:22.928Z,1.65
2022-09-28T10:58:58.099Z,2.28
2022-09-28T11:01:44.174Z,2.05
2022-09-28T11:04:21.730Z,2.33
2022-09-28T11:06:50.197Z,1.83
2022-09-28T11:09:32.724Z,1.67
2022-09-28T11:12:07.178Z,1.60
2022-09-28T11:14:43.782Z,1.65
2022-09-28T11:17:31.442Z,4.13
2022-09-28T11:20:27.435Z,0.85
2022-09-28T11:22:59.264Z,1.67
2022-09-28T11:25:31.434Z,0.90
2022-09-28T11:28:04.548Z,1.52
2022-09-28T11:30:48.423Z,3.47
2022-09-28T11:33:46.785Z,1.98
2022-09-28T11:37:27.321Z,2.03
2022-09-28T11:40:33.651Z,3.92
2022-09-28T11:46:01.827Z,3.80
2022-09-28T11:48:48.631Z,2.45
2022-09-28T11:51:23.583Z,3.65
2022-09-28T11:53:59.963Z,5.85
2022-09-28T11:56:30.349Z,2.95
2022-09-28T11:59:05.612Z,3.17
2022-09-28T12:02:01.108Z,3.83
2022-09-28T12:05:26.996Z,2.30
2022-09-28T12:07:54.457Z,3.80
2022-09-28T12:11:11.199Z,2.75
2022-09-28T12:14:10.589Z,2.13
2022-09-28T12:17:04.862Z,1.30
2022-09-28T12:19:42.585Z,3.30
2022-09-28T12:22:21.162Z,6.80
2022-09-28T12:24:54.568Z,4.35
2022-09-28T12:27:30.183Z,1.80
2022-09-28T12:30:16.387Z,2.72
2022-09-28T12:32:51.806Z,3.60
2022-09-28T12:35:53.222Z,3.90
2022-09-28T12:38:20.653Z,4.00
2022-09-28T12:40:57.638Z,3.20
2022-09-28T12:43:43.228Z,3.38
2022-09-28T12:46:46.618Z,3.80
2022-09-28T12:52:38.199Z,5.15
2022-09-28T12:55:25.962Z,2.50
2022-09-28T12:58:16.336Z,3.53
2022-09-28T13:01:15.189Z,2.00
2022-09-28T13:04:12.719Z,2.78
2022-09-28T13:07:00.255Z,3.08
2022-09-28T13:09:33.101Z,3.13
2022-09-28T13:12:38.131Z,2.60
2022-09-28T13:15:08.909Z,4.22
2022-09-28T13:18:05.163Z,2.42
2022-09-28T13:20:50.666Z,1.38
2022-09-28T13:23:28.890Z,1.95
2022-09-28T13:26:44.958Z,2.35
2022-09-28T13:30:43.474Z,3.33
2022-09-28T13:42:17.044Z,4.05
2022-09-28T13:45:30.938Z,3.00
2022-09-28T15:01:15.577Z,2.50
2022-09-28T15:04:30.771Z,1.75
2022-09-28T15:08:10.976Z,3.75
2022-09-28T15:14:48.899Z,3.50
2022-09-28T15:17:29.938Z,1.75
2022-09-28T15:20:11.802Z,4.47
2022-09-28T15:22:46.752Z,2.55
2022-09-28T15:25:19.908Z,1.85
2022-09-28T15:27:54.261Z,2.42
2022-09-28T15:30:51.369Z,1.85
2022-09-28T15:33:57.286Z,2.15
2022-09-28T15:37:40.406Z,4.30
2022-09-28T15:41:06.993Z,1.83
2022-09-28T15:43:39.623Z,2.63
2022-09-28T15:46:18.981Z,2.17
2022-09-28T15:48:55.322Z,2.55
2022-09-28T15:51:27.578Z,1.90
2022-09-28T15:54:03.004Z,4.97
2022-09-28T15:56:31.418Z,3.03
2022-09-28T15:59:14.037Z,2.55
2022-09-28T16:01:44.156Z,3.63
2022-09-28T16:04:37.504Z,1.80
2022-09-28T16:07:11.948Z,1.92
2022-09-28T16:09:59.938Z,6.60
2022-09-28T16:12:40.478Z,3.40
2022-09-28T16:15:14.993Z,2.90
2022-09-28T16:17:43.088Z,5.47
2022-09-28T16:20:19.471Z,4.35
2022-09-28T16:22:48.252Z,2.60
2022-09-28T16:25:20.129Z,4.70
2022-09-28T16:27:47.685Z,3.60
2022-09-28T16:30:31.945Z,4.93
2022-09-28T16:33:03.546Z,4.57
2022-09-28T16:35:46.605Z,3.78
2022-09-28T16:38:19.617Z,6.28
2022-09-28T16:40:54.824Z,2.90
2022-09-28T16:43:27.297Z,3.70
2022-09-28T16:45:59.404Z,3.22
2022-09-28T16:48:30.353Z,2.13
2022-09-28T16:50:58.422Z,5.25
2022-09-28T16:53:45.305Z,3.83
2022-09-28T16:56:13.513Z,3.72
2022-09-28T16:58:42.507Z,4.30
2022-09-28T17:01:12.551Z,3.70
2022-09-28T17:03:46.985Z,3.22
2022-09-28T17:06:15.391Z,2.40
2022-09-28T17:08:43.459Z,4.13
2022-09-28T17:11:24.558Z,2.53
2022-09-28T17:13:59.079Z,2.05
2022-09-28T17:19:24.581Z,5.90
2022-09-28T17:21:52.767Z,6.25
2022-09-28T17:24:20.876Z,7.72
2022-09-28T17:26:51.121Z,3.75
2022-09-28T17:29:19.280Z,5.32
2022-09-28T17:31:48.154Z,2.60
2022-09-28T17:34:16.828Z,2.65
2022-09-28T17:36:45.485Z,2.15
2022-09-28T17:39:15.023Z,3.42
2022-09-28T17:41:42.816Z,5.47
2022-09-28T17:44:10.853Z,5.00
2022-09-28T17:46:46.378Z,3.30
2022-09-28T17:49:14.706Z,3.55
2022-09-28T17:51:42.458Z,4.28
2022-09-28T17:54:10.559Z,3.70
2022-09-28T17:56:38.076Z,5.00
2022-09-28T17:59:10.177Z,4.95
2022-09-28T18:01:39.331Z,4.35
2022-09-28T18:04:09.072Z,2.78
2022-09-28T18:06:39.656Z,4.40
2022-09-28T18:09:08.858Z,3.17
2022-09-28T18:11:42.387Z,3.53
2022-09-28T18:14:11.360Z,4.45
2022-09-28T18:16:39.149Z,3.92
2022-09-28T18:19:06.768Z,3.65
2022-09-28T18:21:34.200Z,7.25
2022-09-28T18:24:01.915Z,6.18
2022-09-28T18:26:29.303Z,4.88
2022-09-28T18:28:56.642Z,3.13
2022-09-28T18:31:24.068Z,3.75
2022-09-28T18:33:59.000Z,4.07
2022-09-28T18:36:30.677Z,4.55
2022-09-28T18:39:01.513Z,4.20
2022-09-28T18:41:29.335Z,3.15
2022-09-28T18:44:02.323Z,4.78
2022-09-28T18:46:31.551Z,3.25
2022-09-28T18:48:59.053Z,5.65
2022-09-28T18:51:26.858Z,4.32
2022-09-28T18:53:54.499Z,4.90
2022-09-28T18:56:21.977Z,4.97
2022-09-28T18:58:52.746Z,2.95
2022-09-28T19:01:30.451Z,3.65
2022-09-28T19:04:00.453Z,5.82
2022-09-28T19:06:28.957Z,2.95
2022-09-28T19:08:56.935Z,3.13
2022-09-28T19:11:25.391Z,4.32
2022-09-28T19:13:54.454Z,3.92
2022-09-28T19:16:24.517Z,3.38
2022-09-28T19:18:53.609Z,4.05
2022-09-28T19:21:23.342Z,3.28
2022-09-28T19:23:52.042Z,3.08
2022-09-28T19:26:23.234Z,2.97
2022-09-28T19:28:50.796Z,4.18
2022-09-28T19:31:18.582Z,6.07
2022-09-28T19:33:46.633Z,3.45
2022-09-28T19:36:17.924Z,4.57
2022-09-28T19:38:45.642Z,2.70
2022-09-28T19:41:49.366Z,3.22
2022-09-28T19:44:27.658Z,3.50
2022-09-28T19:46:55.303Z,4.35
2022-09-28T19:49:24.800Z,3.63
2022-09-28T19:52:13.792Z,6.03
2022-09-28T19:54:44.522Z,8.35
2022-09-28T19:57:14.099Z,8.68
2022-09-28T19:59:41.618Z,5.22
2022-09-28T20:02:10.753Z,6.00
2022-09-28T20:04:38.191Z,7.00
2022-09-28T20:07:05.786Z,4.28
2022-09-28T20:09:33.190Z,5.97
2022-09-28T20:12:00.739Z,4.57
2022-09-28T20:14:32.857Z,5.20
2022-09-28T20:17:03.843Z,6.70
2022-09-28T20:19:31.227Z,5.45
2022-09-28T20:22:02.089Z,4.95
2022-09-28T20:24:29.449Z,4.88
2022-09-28T20:26:56.953Z,3.30
2022-09-28T20:29:24.498Z,5.75
2022-09-28T20:31:52.076Z,8.18
2022-09-28T20:34:19.578Z,8.18
2022-09-28T20:36:46.957Z,8.27
2022-09-28T20:39:14.437Z,6.32
2022-09-28T20:41:42.098Z,7.57
2022-09-28T20:44:09.916Z,7.10
2022-09-28T20:46:38.232Z,5.95
2022-09-28T20:49:07.190Z,4.35
2022-09-28T20:51:34.734Z,6.32
2022-09-28T20:54:02.560Z,5.68
2022-09-28T20:56:37.829Z,4.13
2022-09-28T21:01:35.200Z,6.05
2022-09-28T21:04:05.945Z,5.88
2022-09-28T21:06:35.846Z,6.43
2022-09-28T21:09:05.466Z,6.20
2022-09-28T21:11:36.680Z,4.55
2022-09-28T21:14:06.875Z,4.82
2022-09-28T21:16:55.209Z,6.65
2022-09-28T21:19:24.358Z,4.00
2022-09-28T21:21:51.952Z,7.78
2022-09-28T21:24:19.808Z,4.65
2022-09-28T21:26:47.488Z,4.72
2022-09-28T21:29:15.508Z,6.28
2022-09-28T21:31:46.851Z,4.40
2022-09-28T21:34:19.478Z,7.32
2022-09-28T21:36:53.443Z,5.35
2022-09-28T21:39:21.221Z,4.88
2022-09-28T21:41:48.778Z,5.55
2022-09-28T21:44:16.320Z,5.80
2022-09-28T21:46:43.847Z,4.20
2022-09-28T21:49:12.735Z,3.97
2022-09-28T21:51:40.286Z,4.53
2022-09-28T21:54:08.269Z,4.65
2022-09-28T21:56:35.885Z,4.20
2022-09-28T21:59:03.480Z,3.92
2022-09-28T22:01:31.766Z,5.80
2022-09-28T22:03:59.469Z,5.22
2022-09-28T22:06:30.561Z,4.60
2022-09-28T22:08:58.404Z,5.80
2022-09-28T22:11:28.424Z,4.15
2022-09-28T22:13:59.029Z,6.47
2022-09-28T22:16:30.123Z,5.53
2022-09-28T22:18:58.737Z,4.78
2022-09-28T22:21:32.705Z,4.57
2022-09-28T22:24:02.747Z,5.65
2022-09-28T22:26:33.090Z,4.85
2022-09-28T22:29:07.248Z,4.72
2022-09-28T22:31:37.390Z,6.25
2022-09-28T22:34:23.474Z,5.95
2022-09-28T22:36:50.966Z,7.65
2022-09-28T22:39:18.493Z,5.72
2022-09-28T22:41:46.172Z,5.55
2022-09-28T22:44:13.694Z,6.05
2022-09-28T22:46:41.285Z,5.95
2022-09-28T22:49:10.393Z,5.75
2022-09-28T22:51:40.003Z,4.78
2022-09-28T22:54:07.445Z,6.28
2022-09-28T22:56:34.896Z,5.35
2022-09-28T22:59:02.450Z,5.18
2022-09-28T23:01:30.683Z,4.90
2022-09-28T23:03:58.341Z,5.43
2022-09-28T23:06:27.874Z,5.38
2022-09-28T23:08:55.383Z,5.20
2022-09-28T23:11:23.298Z,6.07
2022-09-28T23:13:52.425Z,5.13
2022-09-28T23:16:20.700Z,6.72
2022-09-28T23:18:49.367Z,5.18
2022-09-28T23:21:19.177Z,4.90
2022-09-28T23:23:52.267Z,5.40
2022-09-28T23:26:25.287Z,7.80
2022-09-28T23:28:53.868Z,6.05
2022-09-28T23:31:28.085Z,5.65
2022-09-28T23:34:00.464Z,5.32
2022-09-28T23:36:28.348Z,4.75
2022-09-28T23:38:56.358Z,7.03
2022-09-28T23:41:23.907Z,4.72
2022-09-28T23:43:51.439Z,4.35
2022-09-28T23:46:20.942Z,4.57
2022-09-28T23:48:50.007Z,5.03
2022-09-28T23:51:17.629Z,5.05
2022-09-28T23:53:45.809Z,4.95
2022-09-28T23:56:14.659Z,7.20
2022-09-28T23:58:42.844Z,5.13
